Time;durP1;ratioP1;P1;durP2;ratioP2;P2;SDS_P1;SDS_P2;PMS_P1;PMS_P2;Temp;Humidity;BMP_temperature;BMP_pressure;BME280_temperature;BME280_humidity;BME280_pressure;Samples;Min_cycle;Max_cycle;Signal;HPM_P1;HPM_P2
2023/01/06 00:02:22;;;;;;;189.90;38.25;;;8.10;99.90;;;;;;4975159;28;20033;-92
2023/01/06 00:04:47;;;;;;;174.40;38.20;;;8.10;99.90;;;;;;4959298;28;20031;-91
2023/01/06 00:07:13;;;;;;;210.52;38.20;;;8.10;99.90;;;;;;4958888;28;20523;-92
2023/01/06 00:09:39;;;;;;;289.17;43.88;;;8.10;99.90;;;;;;4959416;28;20117;-91
2023/01/06 00:12:06;;;;;;;304.65;43.28;;;8.10;99.90;;;;;;4959684;28;20034;-92
2023/01/06 00:14:32;;;;;;;538.78;58.78;;;8.10;99.90;;;;;;4975592;28;20030;-91
2023/01/06 00:16:57;;;;;;;518.15;56.72;;;8.10;99.90;;;;;;4975840;28;20053;-91
2023/01/06 00:19:23;;;;;;;537.65;53.53;;;8.10;99.90;;;;;;5060516;28;20037;-92
2023/01/06 00:21:49;;;;;;;595.25;60.50;;;8.10;99.90;;;;;;5077539;28;20118;-91
2023/01/06 00:24:14;;;;;;;811.13;71.22;;;8.10;99.90;;;;;;5060155;28;20038;-90
2023/01/06 00:26:40;;;;;;;575.83;59.67;;;8.20;99.90;;;;;;5059513;28;20038;-92
2023/01/06 00:29:08;;;;;;;659.13;64.70;;;8.20;99.90;;;;;;5060023;28;20651;-91
2023/01/06 00:31:36;;;;;;;743.85;71.28;;;8.10;99.90;;;;;;5060335;28;20035;-91
2023/01/06 00:34:02;;;;;;;623.72;60.30;;;8.10;99.90;;;;;;5076866;28;20027;-90
2023/01/06 00:36:27;;;;;;;519.90;54.85;;;8.20;99.90;;;;;;5060424;28;20041;-90
2023/01/06 00:38:53;;;;;;;497.30;54.00;;;8.20;99.90;;;;;;5059715;28;20377;-91
2023/01/06 00:44:04;;;;;;;733.50;71.22;;;8.20;99.90;;;;;;4975486;28;20474;-91
2023/01/06 00:46:32;;;;;;;491.75;54.90;;;8.30;99.90;;;;;;5060447;28;20106;-91
2023/01/06 00:48:59;;;;;;;290.63;39.80;;;8.30;99.90;;;;;;5077027;28;20035;-92
2023/01/06 00:51:25;;;;;;;667.38;59.40;;;8.30;99.90;;;;;;5076172;28;20031;-92
2023/01/06 00:53:50;;;;;;;324.65;39.03;;;8.30;99.90;;;;;;4974451;28;20023;-91
2023/01/06 00:56:16;;;;;;;297.75;38.22;;;8.40;99.90;;;;;;5059085;28;20031;-91
2023/01/06 00:58:42;;;;;;;341.70;37.90;;;8.40;99.90;;;;;;5058956;28;20109;-93
2023/01/06 01:01:08;;;;;;;201.77;36.40;;;8.30;99.90;;;;;;5059218;28;20038;-91
2023/01/06 01:03:36;;;;;;;544.78;54.10;;;8.40;99.90;;;;;;4974816;28;20027;-90
2023/01/06 01:06:04;;;;;;;307.85;40.50;;;8.30;99.90;;;;;;5076055;28;20440;-91
2023/01/06 01:08:30;;;;;;;1097.78;93.35;;;8.40;99.90;;;;;;5059376;28;20390;-91
2023/01/06 01:11:03;;;;;;;634.20;61.88;;;8.40;99.90;;;;;;4974132;28;20746;-91
2023/01/06 01:13:29;;;;;;;645.42;57.22;;;8.40;99.90;;;;;;5059070;28;20035;-91
2023/01/06 01:15:55;;;;;;;455.38;46.67;;;8.40;99.90;;;;;;5075268;28;20027;-91
2023/01/06 01:18:20;;;;;;;614.00;56.83;;;8.40;99.90;;;;;;5058707;28;20034;-90
2023/01/06 01:20:46;;;;;;;67.25;29.25;;;8.40;99.90;;;;;;5058843;28;20051;-92
2023/01/06 01:23:13;;;;;;;61.85;28.80;;;8.40;99.90;;;;;;5058390;28;20042;-90
2023/01/06 01:25:39;;;;;;;66.00;29.60;;;8.40;99.90;;;;;;5075776;28;20039;-92
2023/01/06 01:28:06;;;;;;;97.05;31.55;;;8.40;99.90;;;;;;4974196;28;20062;-91
2023/01/06 01:30:32;;;;;;;69.40;29.48;;;8.50;99.90;;;;;;5059312;28;20027;-91
2023/01/06 01:32:58;;;;;;;70.28;30.60;;;8.50;99.90;;;;;;5058966;28;20034;-91
2023/01/06 01:35:24;;;;;;;61.78;29.20;;;8.50;99.90;;;;;;4975092;28;20031;-91
2023/01/06 01:37:49;;;;;;;75.97;29.35;;;8.50;99.90;;;;;;5057693;28;20042;-91
2023/01/06 01:40:15;;;;;;;72.72;29.63;;;8.50;99.90;;;;;;5059280;28;20034;-92
2023/01/06 01:42:41;;;;;;;81.55;29.55;;;8.50;99.90;;;;;;5075723;28;20229;-90
2023/01/06 01:45:28;;;;;;;109.38;31.35;;;8.50;99.90;;;;;;4973794;28;20027;-90
2023/01/06 01:48:05;;;;;;;84.22;30.30;;;8.50;99.90;;;;;;5075451;28;20038;-92
2023/01/06 01:50:38;;;;;;;82.07;29.45;;;8.50;99.90;;;;;;5058384;28;20090;-92
2023/01/06 01:53:20;;;;;;;73.00;30.52;;;8.50;99.90;;;;;;4974761;28;20031;-92
2023/01/06 01:55:49;;;;;;;59.88;26.90;;;8.50;99.90;;;;;;5058122;28;20478;-91
2023/01/06 01:58:36;;;;;;;58.88;28.90;;;8.50;99.90;;;;;;5057562;28;20034;-92
2023/01/06 02:01:03;;;;;;;63.85;28.10;;;8.50;99.90;;;;;;4973032;28;20505;-91
2023/01/06 02:03:28;;;;;;;88.47;31.67;;;8.50;99.90;;;;;;5074325;28;20034;-92
2023/01/06 02:05:58;;;;;;;47.38;23.85;;;8.50;99.90;;;;;;5058132;28;20039;-90
2023/01/06 02:08:32;;;;;;;62.45;26.00;;;8.40;99.90;;;;;;5074992;28;20081;-92
2023/01/06 02:10:58;;;;;;;45.63;23.45;;;8.50;99.90;;;;;;5057469;28;20031;-91
2023/01/06 02:13:24;;;;;;;57.20;25.67;;;8.50;99.90;;;;;;5057653;28;20524;-92
2023/01/06 02:15:58;;;;;;;40.05;20.67;;;8.50;99.90;;;;;;5057039;28;20023;-92
2023/01/06 02:18:59;;;;;;;39.88;20.23;;;8.50;99.90;;;;;;5057528;28;20038;-92
2023/01/06 02:21:43;;;;;;;48.70;23.05;;;8.50;99.90;;;;;;4988758;28;20038;-91
2023/01/06 02:24:47;;;;;;;54.80;24.90;;;8.50;99.90;;;;;;5057123;28;20038;-91
2023/01/06 02:27:27;;;;;;;101.22;30.05;;;8.50;99.90;;;;;;5073951;28;20054;-92
2023/01/06 02:30:08;;;;;;;65.28;28.67;;;8.50;99.90;;;;;;5058063;28;20058;-91
2023/01/06 02:33:17;;;;;;;135.02;32.83;;;8.50;99.90;;;;;;5056772;28;20479;-91
2023/01/06 02:35:49;;;;;;;268.63;37.83;;;8.50;99.90;;;;;;5057428;28;20023;-91
2023/01/06 02:38:21;;;;;;;501.38;55.30;;;8.40;99.90;;;;;;5057182;28;20050;-91
2023/01/06 02:41:12;;;;;;;432.50;50.67;;;8.40;99.90;;;;;;5054003;28;20478;-90
2023/01/06 02:43:38;;;;;;;727.60;66.97;;;8.50;99.90;;;;;;5057208;28;20027;-91
2023/01/06 02:46:21;;;;;;;737.80;64.97;;;8.50;99.90;;;;;;4972014;28;20023;-91
2023/01/06 02:49:25;;;;;;;894.80;75.38;;;8.50;99.90;;;;;;5057278;28;20497;-91
2023/01/06 02:52:06;;;;;;;854.25;71.88;;;8.50;99.90;;;;;;5060951;28;20473;-90
2023/01/06 02:55:14;;;;;;;592.47;53.75;;;8.50;99.90;;;;;;5054613;28;20034;-90
2023/01/06 02:57:53;;;;;;;571.25;50.33;;;8.50;99.90;;;;;;4959414;28;20061;-91
2023/01/06 03:00:25;;;;;;;825.47;68.45;;;8.50;99.90;;;;;;5060549;28;20027;-91
2023/01/06 03:03:00;;;;;;;575.45;52.85;;;8.50;99.90;;;;;;4975347;28;20489;-91
2023/01/06 03:05:27;;;;;;;594.20;56.72;;;8.50;99.90;;;;;;4975471;28;20038;-91
2023/01/06 03:07:55;;;;;;;824.90;74.28;;;8.50;99.90;;;;;;5060824;28;20055;-91
2023/01/06 03:10:24;;;;;;;1137.75;98.47;;;8.50;99.90;;;;;;5077875;28;20386;-91
2023/01/06 03:13:07;;;;;;;543.35;53.47;;;8.50;99.90;;;;;;5078642;28;20023;-91
2023/01/06 03:15:34;;;;;;;758.25;70.38;;;8.50;99.90;;;;;;5061206;28;20023;-90
2023/01/06 03:18:01;;;;;;;1067.32;84.10;;;8.50;99.90;;;;;;4975992;28;20041;-90
2023/01/06 03:20:27;;;;;;;550.17;49.25;;;8.60;99.90;;;;;;5060729;28;20512;-91
2023/01/06 03:22:53;;;;;;;682.38;59.08;;;8.50;99.90;;;;;;5060623;28;20065;-90
2023/01/06 03:25:19;;;;;;;499.88;45.08;;;8.50;99.90;;;;;;5060906;28;20042;-92
2023/01/06 03:27:47;;;;;;;475.52;45.10;;;8.50;99.90;;;;;;5077154;28;20042;-90
2023/01/06 03:30:14;;;;;;;549.83;52.55;;;8.50;99.90;;;;;;5060564;28;20031;-90
2023/01/06 03:33:04;;;;;;;455.25;45.60;;;8.50;99.90;;;;;;5060945;28;20478;-91
2023/01/06 03:35:38;;;;;;;457.45;43.47;;;8.50;99.90;;;;;;4959039;28;20125;-90
2023/01/06 03:38:26;;;;;;;900.83;73.47;;;8.50;99.90;;;;;;5060437;28;20122;-91
2023/01/06 03:41:04;;;;;;;838.05;65.68;;;8.50;99.90;;;;;;5060661;28;20035;-91
2023/01/06 03:44:10;;;;;;;580.17;50.78;;;8.40;99.90;;;;;;5060647;28;20031;-91
2023/01/06 03:46:49;;;;;;;232.38;34.78;;;8.40;99.90;;;;;;4975360;28;20023;-91
2023/01/06 03:49:32;;;;;;;341.27;39.65;;;8.40;99.90;;;;;;5060119;28;20027;-90
2023/01/06 03:52:05;;;;;;;487.08;44.67;;;8.40;99.90;;;;;;4975363;28;20486;-90
2023/01/06 03:54:43;;;;;;;682.75;58.58;;;8.40;99.90;;;;;;5060053;28;20482;-91
2023/01/06 03:57:23;;;;;;;475.70;48.47;;;8.40;99.90;;;;;;5059455;28;20027;-91
2023/01/06 03:59:59;;;;;;;515.83;56.10;;;8.40;99.90;;;;;;4974299;28;20027;-92
2023/01/06 04:02:25;;;;;;;682.70;62.25;;;8.40;99.90;;;;;;5059474;28;20041;-91
2023/01/06 04:05:11;;;;;;;709.35;64.13;;;8.40;99.90;;;;;;5076598;28;20466;-91
2023/01/06 04:08:06;;;;;;;688.67;64.15;;;8.30;99.90;;;;;;5076499;28;20121;-90
2023/01/06 04:10:32;;;;;;;532.25;51.78;;;8.40;99.90;;;;;;5059640;28;20081;-90
2023/01/06 04:12:59;;;;;;;1065.13;85.65;;;8.40;99.90;;;;;;5059404;28;20081;-91
2023/01/06 04:15:31;;;;;;;1245.82;93.90;;;8.30;99.90;;;;;;5055098;28;20023;-91
2023/01/06 04:17:59;;;;;;;333.10;41.63;;;8.30;99.90;;;;;;5058357;28;20363;-91
2023/01/06 04:20:28;;;;;;;755.00;64.25;;;8.30;99.90;;;;;;5059678;28;20080;-91
2023/01/06 04:23:00;;;;;;;1003.25;83.50;;;8.30;99.90;;;;;;5076577;28;20035;-90
2023/01/06 04:25:31;;;;;;;;;;;8.30;99.90;;;;;;5060667;28;20065;-91
2023/01/06 04:27:58;;;;;;;854.67;68.68;;;8.30;99.90;;;;;;4974118;28;19914;-92
2023/01/06 04:30:23;;;;;;;648.53;62.50;;;8.40;99.90;;;;;;5059181;28;20535;-92
2023/01/06 04:32:52;;;;;;;243.82;40.00;;;8.30;99.90;;;;;;5058958;28;20041;-91
2023/01/06 04:35:18;;;;;;;337.88;42.45;;;8.30;99.90;;;;;;5059158;28;20050;-90
2023/01/06 04:37:44;;;;;;;447.45;50.90;;;8.30;99.90;;;;;;5059219;28;20031;-90
2023/01/06 04:40:10;;;;;;;137.55;32.88;;;8.30;99.90;;;;;;5059416;28;20031;-91
2023/01/06 04:45:20;;;;;;;61.42;29.65;;;8.30;99.90;;;;;;4974405;28;20079;-91
2023/01/06 04:47:46;;;;;;;66.75;28.20;;;8.30;99.90;;;;;;5075700;28;20038;-91
2023/01/06 04:50:11;;;;;;;64.85;26.98;;;8.30;99.90;;;;;;5058988;28;20031;-90
2023/01/06 04:52:37;;;;;;;74.93;30.15;;;8.30;99.90;;;;;;5059023;28;20115;-91
2023/01/06 04:55:03;;;;;;;153.13;34.55;;;8.30;99.90;;;;;;4974010;28;20815;-90
2023/01/06 04:57:29;;;;;;;686.30;62.83;;;8.30;99.90;;;;;;5058601;28;20026;-89
2023/01/06 04:59:54;;;;;;;213.20;36.33;;;8.20;99.90;;;;;;5058411;28;20068;-91
2023/01/06 05:02:20;;;;;;;64.47;27.40;;;8.30;99.90;;;;;;5058506;28;20027;-92
2023/01/06 05:04:46;;;;;;;67.95;27.10;;;8.30;99.90;;;;;;5059050;28;20027;-90
2023/01/06 05:07:11;;;;;;;61.60;26.67;;;8.20;99.90;;;;;;5058386;28;20030;-91
2023/01/06 05:10:06;;;;;;;56.13;28.33;;;8.20;99.90;;;;;;5075018;28;20034;-91
2023/01/06 05:12:50;;;;;;;60.88;25.58;;;8.20;99.90;;;;;;5058337;28;20023;-91
2023/01/06 05:15:16;;;;;;;56.47;24.73;;;8.10;99.90;;;;;;5058505;28;20501;-90
2023/01/06 05:17:42;;;;;;;47.03;21.63;;;8.10;99.90;;;;;;5075217;28;20039;-90
2023/01/06 05:20:08;;;;;;;53.63;23.73;;;8.10;99.90;;;;;;5058164;28;20042;-90
2023/01/06 05:22:33;;;;;;;49.22;21.38;;;8.10;99.90;;;;;;5057710;28;20041;-90
2023/01/06 05:24:59;;;;;;;38.78;18.55;;;8.10;99.90;;;;;;5058239;28;20039;-91
2023/01/06 05:27:25;;;;;;;38.28;18.40;;;8.10;99.90;;;;;;5057889;28;20163;-90
2023/01/06 05:29:51;;;;;;;42.53;19.33;;;8.10;99.90;;;;;;5057843;28;20453;-91
2023/01/06 05:32:16;;;;;;;35.38;17.75;;;8.10;99.90;;;;;;5058262;28;20059;-91
2023/01/06 05:34:42;;;;;;;35.72;17.92;;;8.10;99.90;;;;;;5074986;28;20034;-90
2023/01/06 05:37:08;;;;;;;42.25;22.60;;;8.00;99.90;;;;;;5057210;28;20152;-91
2023/01/06 05:39:33;;;;;;;35.00;18.90;;;8.00;99.90;;;;;;5057131;28;20025;-91
2023/01/06 05:41:59;;;;;;;39.05;20.20;;;8.00;99.90;;;;;;5057291;28;20027;-91
2023/01/06 05:44:24;;;;;;;41.60;20.63;;;8.10;99.90;;;;;;5057368;28;20080;-91
2023/01/06 05:46:50;;;;;;;47.05;23.20;;;8.10;99.90;;;;;;5056897;28;20034;-91
2023/01/06 05:49:16;;;;;;;53.75;22.88;;;8.10;99.90;;;;;;5057208;28;20088;-92
2023/01/06 05:51:41;;;;;;;38.70;20.40;;;8.00;99.90;;;;;;5056850;28;20039;-91
2023/01/06 05:54:08;;;;;;;46.95;22.45;;;8.00;99.90;;;;;;5056828;28;20038;-90
2023/01/06 05:56:34;;;;;;;39.67;20.15;;;8.00;99.90;;;;;;4972384;28;20060;-91
2023/01/06 05:59:00;;;;;;;39.92;20.17;;;8.00;99.90;;;;;;5057373;28;20088;-91
2023/01/06 06:01:28;;;;;;;45.35;21.38;;;8.00;99.90;;;;;;4973010;28;20064;-91
2023/01/06 06:03:54;;;;;;;48.10;22.90;;;8.00;99.90;;;;;;5056761;28;20512;-92
2023/01/06 06:06:22;;;;;;;40.45;21.15;;;8.00;99.90;;;;;;5057296;28;20121;-92
2023/01/06 06:08:48;;;;;;;47.00;21.95;;;8.00;99.90;;;;;;5057931;28;20034;-91
2023/01/06 06:11:16;;;;;;;52.47;23.38;;;8.00;99.90;;;;;;4972593;28;20394;-91
2023/01/06 06:13:53;;;;;;;43.28;21.52;;;8.00;99.90;;;;;;4972399;28;20037;-92
2023/01/06 06:16:21;;;;;;;38.50;19.60;;;8.00;99.90;;;;;;4972514;28;20552;-91
2023/01/06 06:18:52;;;;;;;36.78;17.90;;;8.00;99.90;;;;;;4956554;28;20034;-91
2023/01/06 06:21:21;;;;;;;36.65;18.77;;;8.00;99.90;;;;;;5057047;28;20035;-91
2023/01/06 06:23:47;;;;;;;38.22;20.65;;;8.00;99.90;;;;;;5056629;28;20039;-91
2023/01/06 06:26:12;;;;;;;32.40;17.52;;;8.00;99.90;;;;;;4972654;28;20546;-91
2023/01/06 06:28:39;;;;;;;32.50;17.17;;;8.00;99.90;;;;;;5057014;28;20035;-90
2023/01/06 06:31:06;;;;;;;34.50;16.52;;;7.90;99.90;;;;;;5073996;28;20042;-91
2023/01/06 06:33:32;;;;;;;39.95;17.52;;;7.90;99.90;;;;;;5057378;28;20018;-90
2023/01/06 06:35:58;;;;;;;29.00;15.27;;;7.90;99.90;;;;;;5057002;28;20084;-91
2023/01/06 06:38:24;;;;;;;34.80;16.35;;;7.80;99.90;;;;;;5057589;28;20062;-91
2023/01/06 06:40:50;;;;;;;29.83;14.57;;;7.80;99.90;;;;;;5057324;28;20092;-91
2023/01/06 06:43:15;;;;;;;28.95;14.30;;;7.80;99.90;;;;;;5057564;28;20058;-91
2023/01/06 06:45:43;;;;;;;34.05;14.70;;;7.80;99.90;;;;;;5056713;28;20482;-91
2023/01/06 06:48:09;;;;;;;33.67;15.10;;;7.80;99.90;;;;;;5056965;28;20031;-91
2023/01/06 06:50:35;;;;;;;31.02;14.75;;;7.70;99.90;;;;;;5074147;28;20035;-91
2023/01/06 06:53:01;;;;;;;32.47;15.68;;;7.70;99.90;;;;;;4972138;28;20029;-90
2023/01/06 06:55:26;;;;;;;28.88;13.57;;;7.80;99.90;;;;;;5056911;28;20172;-91
2023/01/06 06:57:52;;;;;;;28.25;14.48;;;7.80;99.90;;;;;;5073433;28;20470;-91
2023/01/06 07:00:18;;;;;;;25.63;12.65;;;7.80;99.90;;;;;;5057247;28;20524;-91
2023/01/06 07:02:47;;;;;;;23.77;12.63;;;7.70;99.90;;;;;;5056867;28;20527;-91
2023/01/06 07:05:13;;;;;;;25.00;12.10;;;7.70;99.90;;;;;;4972313;28;20536;-90
2023/01/06 07:07:39;;;;;;;24.50;11.93;;;7.70;99.90;;;;;;5056800;28;20470;-91
2023/01/06 07:10:05;;;;;;;27.10;13.20;;;7.70;99.90;;;;;;5074024;28;20033;-91
2023/01/06 07:12:31;;;;;;;23.92;11.68;;;7.60;99.90;;;;;;4972392;28;20066;-91
2023/01/06 07:14:57;;;;;;;21.90;11.40;;;7.70;99.90;;;;;;5056819;28;20027;-91
2023/01/06 07:17:28;;;;;;;23.13;10.90;;;7.60;99.90;;;;;;5056423;28;20039;-90
2023/01/06 07:19:54;;;;;;;25.67;11.10;;;7.70;99.90;;;;;;5056561;28;20478;-90
2023/01/06 07:22:20;;;;;;;21.75;10.32;;;7.60;99.90;;;;;;4972304;28;20087;-92
2023/01/06 07:24:46;;;;;;;21.25;10.02;;;7.60;99.90;;;;;;5056530;28;20113;-92
2023/01/06 07:27:11;;;;;;;23.85;9.75;;;7.60;99.90;;;;;;5073289;28;20547;-92
2023/01/06 07:29:37;;;;;;;26.40;11.05;;;7.60;99.90;;;;;;5073324;28;20037;-92
2023/01/06 07:32:04;;;;;;;20.83;9.77;;;7.60;99.90;;;;;;5056286;28;20027;-91
2023/01/06 07:34:30;;;;;;;26.20;10.27;;;7.60;99.90;;;;;;4971594;28;20156;-92
2023/01/06 07:36:56;;;;;;;21.85;10.13;;;7.60;99.90;;;;;;5058514;28;20037;-92
2023/01/06 07:39:22;;;;;;;27.33;10.85;;;7.50;99.90;;;;;;5059779;28;20637;-92
2023/01/06 07:41:47;;;;;;;26.38;11.10;;;7.50;99.90;;;;;;5059436;28;20031;-90
2023/01/06 07:44:14;;;;;;;32.45;13.15;;;7.50;99.90;;;;;;5058631;28;20496;-91
2023/01/06 07:46:40;;;;;;;35.17;13.73;;;7.50;99.90;;;;;;5059099;28;20034;-90
2023/01/06 07:49:06;;;;;;;34.63;14.30;;;7.50;99.90;;;;;;5059077;28;20053;-92
2023/01/06 07:51:32;;;;;;;26.83;13.07;;;7.50;99.90;;;;;;5058834;28;20023;-91
2023/01/06 07:53:57;;;;;;;23.63;9.90;;;7.50;99.90;;;;;;5059010;28;20030;-92
2023/01/06 07:56:23;;;;;;;22.30;9.93;;;7.50;99.90;;;;;;5058845;28;20050;-91
2023/01/06 07:58:49;;;;;;;23.83;10.95;;;7.50;99.90;;;;;;4973891;28;20038;-91
2023/01/06 08:01:15;;;;;;;24.08;11.07;;;7.50;99.90;;;;;;4974009;28;20031;-92
2023/01/06 08:03:41;;;;;;;12.73;6.63;;;7.40;99.90;;;;;;5058905;28;20121;-93
2023/01/06 08:06:08;;;;;;;11.40;5.60;;;7.40;99.90;;;;;;5059269;28;20035;-91
2023/01/06 08:08:36;;;;;;;8.18;5.10;;;7.30;99.90;;;;;;4974001;28;20042;-91
2023/01/06 08:11:01;;;;;;;13.25;4.63;;;7.10;99.90;;;;;;4974041;28;20031;-91
2023/01/06 08:13:27;;;;;;;9.18;4.82;;;7.00;99.90;;;;;;5059593;28;20053;-91
2023/01/06 08:15:53;;;;;;;7.15;3.35;;;7.10;99.90;;;;;;5058550;28;20031;-90
2023/01/06 08:18:19;;;;;;;8.90;3.70;;;7.00;99.90;;;;;;5058784;28;20498;-91
2023/01/06 08:20:44;;;;;;;7.30;3.47;;;7.00;99.90;;;;;;4973787;28;20486;-93
2023/01/06 08:23:10;;;;;;;5.70;2.80;;;7.00;99.90;;;;;;5058438;28;20034;-90
2023/01/06 08:25:36;;;;;;;3.30;2.50;;;7.00;99.90;;;;;;4973861;28;20155;-91
2023/01/06 08:28:02;;;;;;;5.90;2.53;;;6.90;99.90;;;;;;4973874;28;20035;-91
2023/01/06 08:30:28;;;;;;;8.18;4.03;;;6.90;99.90;;;;;;4973708;28;20147;-91
2023/01/06 08:32:58;;;;;;;3.78;2.60;;;6.90;99.90;;;;;;5058377;28;20195;-91
2023/01/06 08:35:24;;;;;;;9.20;3.08;;;6.90;99.90;;;;;;4973415;28;20026;-91
2023/01/06 08:37:50;;;;;;;2.40;2.05;;;6.90;99.90;;;;;;5058263;28;20027;-91
2023/01/06 08:40:15;;;;;;;4.10;2.30;;;6.90;99.90;;;;;;5057976;28;20134;-91
2023/01/06 08:42:41;;;;;;;7.07;2.65;;;6.90;99.90;;;;;;5057990;28;20122;-90
2023/01/06 08:45:07;;;;;;;7.60;2.03;;;6.80;99.90;;;;;;5057905;28;20080;-92
2023/01/06 08:47:34;;;;;;;3.17;1.80;;;6.90;99.90;;;;;;4972457;28;20038;-91
2023/01/06 08:49:59;;;;;;;2.65;1.45;;;6.90;99.90;;;;;;5057757;28;20030;-90
2023/01/06 08:52:25;;;;;;;4.65;1.80;;;6.90;99.90;;;;;;5058348;28;20038;-89
2023/01/06 08:54:51;;;;;;;2.28;1.50;;;7.00;99.90;;;;;;5075606;28;20034;-92
2023/01/06 08:57:17;;;;;;;1.27;1.02;;;7.10;99.90;;;;;;5058076;28;20058;-91
2023/01/06 08:59:42;;;;;;;1.80;1.25;;;7.10;99.90;;;;;;5057670;28;20046;-91
2023/01/06 09:02:10;;;;;;;4.07;1.23;;;7.10;99.90;;;;;;5058006;28;20050;-91
2023/01/06 09:04:35;;;;;;;1.58;0.93;;;7.10;99.90;;;;;;5057893;28;20038;-90
2023/01/06 09:07:01;;;;;;;3.92;1.23;;;7.20;99.90;;;;;;5057363;28;20034;-89
2023/01/06 09:09:27;;;;;;;4.93;3.10;;;7.20;99.90;;;;;;5058004;28;20035;-90
2023/01/06 09:11:52;;;;;;;4.05;0.93;;;7.20;99.90;;;;;;5057621;28;20034;-89
2023/01/06 09:14:18;;;;;;;2.30;1.00;;;7.20;99.90;;;;;;5057235;28;20027;-90
2023/01/06 09:16:44;;;;;;;3.03;1.05;;;7.20;99.90;;;;;;5057159;28;20039;-90
2023/01/06 09:19:10;;;;;;;1.30;1.10;;;7.20;99.90;;;;;;4972714;28;20045;-89
2023/01/06 09:21:36;;;;;;;20.90;8.23;;;7.30;99.90;;;;;;4972807;28;20034;-92
2023/01/06 09:24:02;;;;;;;5.40;1.85;;;7.40;99.90;;;;;;5057271;28;20039;-90
2023/01/06 09:26:28;;;;;;;4.60;2.22;;;7.40;99.90;;;;;;4972751;28;20042;-90
2023/01/06 09:28:53;;;;;;;2.30;1.80;;;7.50;99.90;;;;;;5057004;28;20528;-90
2023/01/06 09:31:19;;;;;;;5.57;1.83;;;7.60;99.90;;;;;;5057964;28;20423;-89
2023/01/06 09:33:45;;;;;;;4.18;2.33;;;7.70;99.90;;;;;;4972522;28;20038;-91
2023/01/06 09:36:11;;;;;;;4.63;2.97;;;7.80;99.90;;;;;;5074077;28;20031;-91
2023/01/06 09:38:36;;;;;;;14.98;5.32;;;8.00;99.90;;;;;;5074490;28;20034;-89
2023/01/06 09:41:35;;;;;;;11.27;6.20;;;8.10;99.90;;;;;;5073953;28;20562;-89
2023/01/06 09:44:11;;;;;;;12.65;7.03;;;8.20;99.90;;;;;;5056971;28;20478;-91
2023/01/06 09:46:40;;;;;;;11.48;5.82;;;8.10;99.90;;;;;;5057221;28;20030;-90
2023/01/06 09:49:31;;;;;;;6.45;3.10;;;8.20;99.90;;;;;;5056871;28;20034;-91
2023/01/06 09:52:02;;;;;;;17.15;9.93;;;8.20;99.90;;;;;;4972427;28;20483;-91
2023/01/06 09:54:40;;;;;;;7.75;4.50;;;8.10;99.90;;;;;;5056913;28;20129;-91
2023/01/06 09:57:14;;;;;;;6.65;3.42;;;8.10;99.90;;;;;;4972389;28;20037;-90
2023/01/06 09:59:57;;;;;;;10.10;3.20;;;8.10;99.90;;;;;;5055943;28;20031;-91
2023/01/06 10:02:34;;;;;;;5.80;4.15;;;8.10;99.90;;;;;;5056844;28;20129;-90
2023/01/06 10:05:00;;;;;;;11.43;6.10;;;8.10;99.90;;;;;;4972152;28;20520;-90
2023/01/06 10:07:44;;;;;;;10.65;5.90;;;8.00;99.90;;;;;;5057099;28;20034;-90
2023/01/06 10:10:51;;;;;;;8.80;4.25;;;8.00;99.90;;;;;;4972118;28;20050;-90
2023/01/06 10:13:23;;;;;;;13.50;5.30;;;8.00;99.90;;;;;;4976583;28;20038;-89
2023/01/06 10:16:29;;;;;;;7.70;4.00;;;7.90;99.90;;;;;;5056712;28;20117;-90
2023/01/06 10:19:23;;;;;;;10.60;4.70;;;7.90;99.90;;;;;;5056541;28;20041;-90
2023/01/06 10:22:07;;;;;;;10.40;5.90;;;7.90;99.90;;;;;;4971807;28;20035;-92
2023/01/06 10:24:50;;;;;;;7.85;4.00;;;7.80;99.90;;;;;;5056278;28;20070;-91
2023/01/06 10:27:38;;;;;;;5.40;3.13;;;7.80;99.90;;;;;;5056684;28;20045;-90
2023/01/06 10:30:19;;;;;;;6.68;2.50;;;7.70;99.90;;;;;;5056786;28;20124;-91
2023/01/06 10:32:48;;;;;;;7.80;3.53;;;7.80;99.90;;;;;;5056386;28;20034;-90
2023/01/06 10:35:16;;;;;;;8.32;2.88;;;7.80;99.90;;;;;;5056538;28;20312;-90
2023/01/06 10:37:48;;;;;;;4.43;2.38;;;7.80;99.90;;;;;;4971648;28;20031;-90
2023/01/06 10:40:20;;;;;;;4.75;3.20;;;7.80;99.90;;;;;;5056400;28;20033;-90
2023/01/06 10:42:58;;;;;;;6.22;3.90;;;7.80;99.90;;;;;;4971748;28;20031;-90
2023/01/06 10:45:32;;;;;;;14.35;5.10;;;7.70;99.90;;;;;;4955804;28;20031;-91
2023/01/06 10:48:00;;;;;;;21.13;10.73;;;7.70;99.90;;;;;;5056191;28;20494;-92
2023/01/06 10:50:26;;;;;;;14.50;5.85;;;7.60;99.90;;;;;;5056652;28;20027;-90
2023/01/06 10:52:52;;;;;;;5.78;3.25;;;7.60;99.90;;;;;;5056276;28;20031;-90
2023/01/06 10:55:32;;;;;;;5.82;3.65;;;7.70;99.90;;;;;;5056379;28;20437;-91
2023/01/06 10:58:33;;;;;;;5.03;2.38;;;7.70;99.90;;;;;;5056023;28;20468;-90
2023/01/06 11:01:07;;;;;;;3.83;2.33;;;7.60;99.90;;;;;;5056032;28;20113;-91
2023/01/06 11:03:33;;;;;;;3.65;2.75;;;7.70;99.90;;;;;;5056130;28;20137;-90
2023/01/06 11:06:12;;;;;;;6.35;3.22;;;7.60;99.90;;;;;;4971305;28;20030;-91
2023/01/06 11:08:39;;;;;;;7.38;3.63;;;7.60;99.90;;;;;;5055907;28;20031;-91
2023/01/06 11:11:16;;;;;;;8.27;4.78;;;7.60;99.90;;;;;;4973624;28;20474;-91
2023/01/06 11:13:48;;;;;;;4.57;3.03;;;7.60;99.90;;;;;;4958493;28;20039;-91
2023/01/06 11:16:27;;;;;;;10.85;3.17;;;7.60;99.90;;;;;;5059658;28;20054;-90
2023/01/06 11:19:02;;;;;;;6.20;2.70;;;7.60;99.90;;;;;;5059935;28;20035;-90
2023/01/06 11:21:43;;;;;;;5.78;2.97;;;7.60;99.90;;;;;;5059461;28;20129;-91
2023/01/06 11:24:21;;;;;;;5.25;3.40;;;7.70;99.90;;;;;;4974510;28;20125;-91
2023/01/06 11:26:55;;;;;;;4.72;2.47;;;7.70;99.90;;;;;;5059843;28;20436;-90
2023/01/06 11:29:24;;;;;;;4.55;2.63;;;7.60;99.90;;;;;;4974391;28;20453;-90
2023/01/06 11:31:50;;;;;;;4.07;2.03;;;7.60;99.90;;;;;;5059109;28;20054;-90
2023/01/06 11:34:22;;;;;;;3.42;1.90;;;7.60;99.90;;;;;;5059491;28;20471;-90
2023/01/06 11:36:50;;;;;;;9.18;3.42;;;7.60;99.90;;;;;;4974388;28;20053;-91
2023/01/06 11:39:33;;;;;;;5.32;2.30;;;7.60;99.90;;;;;;5059269;28;20096;-92
2023/01/06 11:42:12;;;;;;;2.53;2.08;;;7.50;99.90;;;;;;5058965;28;20031;-91
2023/01/06 11:44:40;;;;;;;3.15;2.22;;;7.50;99.90;;;;;;5059252;28;20401;-90
2023/01/06 11:47:17;;;;;;;3.72;2.55;;;7.50;99.90;;;;;;5059426;28;20049;-92
2023/01/06 11:50:01;;;;;;;4.00;2.00;;;7.50;99.90;;;;;;4974433;28;20046;-91
2023/01/06 11:52:30;;;;;;;5.07;2.10;;;7.40;99.90;;;;;;5059596;28;20062;-91
2023/01/06 11:55:20;;;;;;;5.45;2.20;;;7.50;99.90;;;;;;4974382;28;20031;-91
2023/01/06 11:58:20;;;;;;;4.80;2.00;;;7.50;99.90;;;;;;5059206;28;20121;-91
2023/01/06 12:00:52;;;;;;;4.72;1.98;;;7.50;99.90;;;;;;4974443;28;20038;-91
2023/01/06 12:03:24;;;;;;;5.07;1.60;;;7.50;99.90;;;;;;5075872;28;20023;-91
2023/01/06 12:06:11;;;;;;;4.18;1.92;;;7.50;99.90;;;;;;4974229;28;20026;-91
2023/01/06 12:08:53;;;;;;;1.92;1.40;;;7.50;99.90;;;;;;5076302;28;20035;-91
2023/01/06 12:14:34;;;;;;;2.20;1.90;;;7.50;99.90;;;;;;4974220;28;20035;-92
2023/01/06 12:17:06;;;;;;;4.85;1.92;;;7.40;99.90;;;;;;4974203;28;20059;-90
2023/01/06 12:19:52;;;;;;;3.50;1.95;;;7.50;99.90;;;;;;5058983;28;20398;-91
2023/01/06 12:22:30;;;;;;;6.75;2.47;;;7.50;99.90;;;;;;5058114;28;20107;-90
2023/01/06 12:24:58;;;;;;;3.95;1.35;;;7.50;99.90;;;;;;5058855;28;20035;-92
2023/01/06 12:27:31;;;;;;;2.28;1.92;;;7.60;99.90;;;;;;5058842;28;20497;-91
2023/01/06 12:30:33;;;;;;;5.03;1.67;;;7.60;99.90;;;;;;5058980;28;20031;-92
2023/01/06 12:33:11;;;;;;;6.43;1.50;;;7.60;99.90;;;;;;4974048;28;20520;-91
2023/01/06 12:35:39;;;;;;;3.00;1.15;;;7.60;99.90;;;;;;5058656;28;20038;-90
2023/01/06 12:38:33;;;;;;;4.50;1.30;;;7.60;99.90;;;;;;5058347;28;20034;-89
2023/01/06 12:41:08;;;;;;;3.47;1.40;;;7.50;99.90;;;;;;4973863;28;20164;-92
2023/01/06 12:43:37;;;;;;;1.73;1.23;;;7.60;99.90;;;;;;5058575;28;20035;-92
2023/01/06 12:46:18;;;;;;;5.18;1.63;;;7.50;99.90;;;;;;5058381;28;20035;-92
2023/01/06 12:48:49;;;;;;;3.13;1.70;;;7.50;99.90;;;;;;5058359;28;20049;-90
2023/01/06 12:51:48;;;;;;;4.05;1.88;;;7.60;99.90;;;;;;4973715;28;20038;-91
2023/01/06 12:54:21;;;;;;;3.22;2.22;;;7.50;99.90;;;;;;5058517;28;20049;-91
2023/01/06 12:56:58;;;;;;;2.65;1.77;;;7.60;99.90;;;;;;5058071;28;20030;-92
2023/01/06 12:59:49;;;;;;;2.88;1.90;;;7.60;99.90;;;;;;5058379;28;20133;-91
2023/01/06 13:02:33;;;;;;;5.55;2.80;;;7.60;99.90;;;;;;5057729;28;20031;-91
2023/01/06 13:05:33;;;;;;;3.00;1.60;;;7.60;99.90;;;;;;5057680;28;20073;-90
2023/01/06 13:08:24;;;;;;;3.58;2.15;;;7.50;99.90;;;;;;5057934;28;20134;-91
2023/01/06 13:11:11;;;;;;;9.60;2.40;;;7.50;99.90;;;;;;4973417;28;20113;-92
2023/01/06 13:14:00;;;;;;;3.22;1.80;;;7.50;99.90;;;;;;5057875;28;20409;-90